Time;durP1;ratioP1;P1;durP2;ratioP2;P2;SDS_P1;SDS_P2;PMS_P1;PMS_P2;Temp;Humidity;BMP_temperature;BMP_pressure;BME280_temperature;BME280_humidity;BME280_pressure;Samples;Min_cycle;Max_cycle;Signal;HPM_P1;HPM_P2
2023/10/07 05:45:45;;;;;;;;;;;2.40;99.90;;;;;;5113491;22;19925;-73
2023/10/07 05:48:11;;;;;;;;;;;2.50;99.90;;;;;;5034046;28;19932;-73
2023/10/07 05:50:38;;;;;;;;;;;2.50;99.90;;;;;;5034259;28;19929;-73
2023/10/07 05:53:05;;;;;;;;;;;2.60;99.90;;;;;;5033903;28;20382;-73
2023/10/07 05:55:33;;;;;;;;;;;2.70;99.90;;;;;;5034133;28;19925;-73
2023/10/07 05:57:59;;;;;;;;;;;2.70;99.90;;;;;;5034425;28;19925;-73
2023/10/07 06:00:31;;;;;;;;;;;2.90;99.90;;;;;;5033703;28;19932;-72
2023/10/07 06:02:59;;;;;;;;;;;3.30;99.90;;;;;;5034142;28;19961;-72
2023/10/07 06:05:27;;;;;;;;;;;4.30;99.90;;;;;;5033978;28;19932;-74
2023/10/07 06:07:54;;;;;;;;;;;5.40;99.90;;;;;;5033979;28;19925;-73
2023/10/07 06:10:24;;;;;;;;;;;6.20;99.90;;;;;;5033989;28;19932;-74
2023/10/07 06:12:51;;;;;;;;;;;6.70;99.90;;;;;;5033975;28;19939;-74
2023/10/07 06:15:18;;;;;;;;;;;7.20;99.90;;;;;;5033896;28;19951;-74
2023/10/07 06:17:45;;;;;;;;;;;7.70;99.90;;;;;;5034013;28;19925;-71
2023/10/07 06:20:15;;;;;;;;;;;8.10;99.90;;;;;;5033809;28;19925;-72
2023/10/07 06:22:46;;;;;;;;;;;8.40;99.90;;;;;;5035018;28;19940;-72
2023/10/07 06:25:15;;;;;;;;;;;8.60;99.90;;;;;;5033460;28;19929;-74
2023/10/07 06:27:43;;;;;;;;;;;8.80;99.90;;;;;;5033847;28;19932;-73
2023/10/07 06:30:12;;;;;;;;;;;9.30;99.90;;;;;;5034644;28;19929;-72
2023/10/07 06:32:44;;;;;;;;;;;10.20;99.90;;;;;;5033724;28;19926;-73
2023/10/07 06:35:14;;;;;;;;;;;11.30;99.90;;;;;;5033934;28;19975;-73
2023/10/07 06:37:42;;;;;;;;;;;12.50;99.90;;;;;;5034020;28;19925;-72
2023/10/07 06:40:24;;;;;;;;;;;13.60;99.90;;;;;;5033651;28;20387;-72
2023/10/07 06:42:51;;;;;;;;;;;14.60;99.90;;;;;;5034339;28;19932;-72
2023/10/07 06:45:18;;;;;;;;;;;15.70;99.90;;;;;;5033145;28;20417;-71
2023/10/07 06:47:46;;;;;;;;;;;16.80;99.90;;;;;;5033803;28;19925;-71
2023/10/07 06:50:19;;;;;;;;;;;18.20;99.90;;;;;;5033915;28;19925;-71
2023/10/07 06:52:49;;;;;;;;;;;19.30;99.90;;;;;;5033379;28;20425;-73
2023/10/07 06:55:16;;;;;;;;;;;20.50;99.90;;;;;;5033564;28;19932;-74
2023/10/07 06:57:45;;;;;;;;;;;21.30;93.20;;;;;;5033718;28;20013;-74
2023/10/07 07:00:22;;;;;;;;;;;21.80;58.70;;;;;;5036905;28;19926;-74
2023/10/07 07:02:54;;;;;;;;;;;22.20;62.30;;;;;;5037469;28;19929;-74
2023/10/07 07:05:22;;;;;;;;;;;22.70;61.80;;;;;;5036939;28;20409;-75
2023/10/07 07:07:52;;;;;;;;;;;23.20;54.60;;;;;;5037223;28;19925;-74
2023/10/07 07:10:27;;;;;;;;;;;23.50;48.00;;;;;;5037248;28;19925;-74
2023/10/07 07:13:04;;;;;;;;;;;24.10;44.60;;;;;;5037482;28;20016;-74
2023/10/07 07:15:36;;;;;;;;;;;24.40;40.00;;;;;;5037077;28;19929;-74
2023/10/07 07:18:14;;;;;;;;;;;24.70;38.90;;;;;;5037189;28;19976;-74
2023/10/07 07:20:49;;;;;;;;;;;25.10;37.10;;;;;;5037006;28;19929;-74
2023/10/07 07:23:21;;;;;;;;;;;25.30;35.30;;;;;;5037035;28;19921;-74
2023/10/07 07:25:51;;;;;;;;;;;25.20;36.90;;;;;;5036675;28;19925;-75
2023/10/07 07:28:18;;;;;;;;;;;25.40;36.30;;;;;;5036840;28;19921;-73
2023/10/07 07:30:45;;;;;;;;;;;25.80;33.60;;;;;;5036808;28;19925;-74
2023/10/07 07:33:13;;;;;;;;;;;26.10;32.70;;;;;;5036653;28;19921;-74
2023/10/07 07:35:41;;;;;;;;;;;26.10;31.70;;;;;;5036333;28;20266;-73
2023/10/07 07:38:26;;;;;;;;;;;26.30;31.20;;;;;;5036677;28;19925;-73
2023/10/07 07:41:05;;;;;;;;;;;26.70;30.10;;;;;;5036573;28;19927;-73
2023/10/07 07:43:33;;;;;;;;;;;27.00;29.60;;;;;;5036543;28;19925;-73
2023/10/07 07:46:11;;;;;;;;;;;27.60;29.50;;;;;;5036228;28;19932;-73
2023/10/07 07:48:38;;;;;;;;;;;28.30;28.30;;;;;;5036540;28;19932;-73
2023/10/07 07:51:04;;;;;;;;;;;28.90;27.60;;;;;;5036406;28;19925;-73
2023/10/07 07:53:31;;;;;;;;;;;29.00;27.00;;;;;;5036360;28;19932;-73
2023/10/07 07:55:59;;;;;;;;;;;28.70;25.90;;;;;;5036413;28;19925;-73
2023/10/07 07:58:27;;;;;;;;;;;28.00;27.30;;;;;;5036288;28;19925;-73
2023/10/07 08:01:04;;;;;;;;;;;27.80;27.50;;;;;;5036210;28;19932;-73
2023/10/07 08:03:35;;;;;;;;;;;27.80;27.20;;;;;;5036232;28;20016;-73
2023/10/07 08:06:02;;;;;;;;;;;28.00;27.10;;;;;;5036304;28;19940;-73
2023/10/07 08:08:29;;;;;;;;;;;28.10;26.90;;;;;;5036154;28;20341;-73
2023/10/07 08:10:56;;;;;;;;;;;28.10;26.90;;;;;;5035514;28;20440;-73
2023/10/07 08:13:24;;;;;;;;;;;28.30;27.40;;;;;;5036057;28;19929;-73
2023/10/07 08:15:53;;;;;;;;;;;28.40;27.60;;;;;;5035952;28;20298;-73
2023/10/07 08:18:28;;;;;;;;;;;28.70;27.90;;;;;;5035907;28;19971;-73
2023/10/07 08:21:06;;;;;;;;;;;29.10;27.90;;;;;;5035679;28;20302;-75
2023/10/07 08:23:36;;;;;;;;;;;29.40;25.10;;;;;;5035843;28;19971;-75
2023/10/07 08:26:09;;;;;;;;;;;27.90;25.70;;;;;;5036243;28;19932;-74
2023/10/07 08:28:42;;;;;;;;;;;26.10;27.90;;;;;;5035938;28;19925;-74
2023/10/07 08:31:20;;;;;;;;;;;24.00;30.20;;;;;;5035724;28;19929;-73
2023/10/07 08:33:53;;;;;;;;;;;22.40;33.70;;;;;;5035442;28;20382;-75
2023/10/07 08:36:27;;;;;;;;;;;20.90;36.80;;;;;;5035463;28;20313;-73
2023/10/07 08:38:58;;;;;;;;;;;19.50;44.20;;;;;;5035958;28;19926;-74
2023/10/07 08:41:27;;;;;;;;;;;18.40;60.10;;;;;;5035788;28;19942;-76
2023/10/07 08:44:03;;;;;;;;;;;17.60;81.90;;;;;;5035700;28;19925;-74
2023/10/07 08:46:37;;;;;;;;;;;17.00;97.80;;;;;;5035018;28;19925;-72
2023/10/07 08:49:10;;;;;;;;;;;16.50;99.90;;;;;;5035558;28;19929;-71
2023/10/07 08:51:40;;;;;;;;;;;16.10;99.90;;;;;;5035947;28;19925;-71
2023/10/07 08:54:10;;;;;;;;;;;16.00;99.90;;;;;;5035048;28;20379;-70
2023/10/07 08:56:40;;;;;;;;;;;15.90;99.90;;;;;;5035278;28;19925;-74
2023/10/07 08:59:12;;;;;;;;;;;15.80;99.90;;;;;;5034907;28;19925;-74
2023/10/07 09:01:42;;;;;;;;;;;15.70;99.90;;;;;;5035173;28;19972;-74
2023/10/07 09:04:09;;;;;;;;;;;15.70;99.90;;;;;;5035138;28;19929;-76
2023/10/07 09:06:38;;;;;;;;;;;15.60;99.90;;;;;;5034961;28;19933;-75
2023/10/07 09:09:06;;;;;;;;;;;15.60;99.90;;;;;;5034660;28;20395;-72
2023/10/07 09:11:33;;;;;;;;;;;15.50;99.90;;;;;;5034955;28;19925;-73
2023/10/07 09:14:06;;;;;;;;;;;15.50;99.90;;;;;;5034841;28;19932;-74
2023/10/07 09:16:33;;;;;;;;;;;15.40;99.90;;;;;;5035036;28;19925;-73
2023/10/07 09:19:03;;;;;;;;;;;15.40;99.90;;;;;;5034921;28;19951;-74
2023/10/07 09:21:33;;;;;;;;;;;15.40;99.90;;;;;;5034069;28;19930;-74
2023/10/07 09:24:00;;;;;;;;;;;15.50;99.90;;;;;;5034973;28;19968;-74
2023/10/07 09:26:33;;;;;;;;;;;15.60;99.90;;;;;;5034231;28;19925;-74
2023/10/07 09:29:06;;;;;;;;;;;15.60;99.90;;;;;;5034748;28;19935;-73
2023/10/07 09:31:35;;;;;;;;;;;15.70;99.90;;;;;;5034785;28;19932;-74
2023/10/07 09:34:09;;;;;;;;;;;15.90;99.90;;;;;;5034901;28;19973;-74
2023/10/07 09:36:40;;;;;;;;;;;16.20;99.90;;;;;;5035375;28;19925;-73
2023/10/07 09:39:34;;;;;;;;;;;16.60;99.90;;;;;;5035748;28;20358;-73
2023/10/07 09:42:04;;;;;;;;;;;17.00;99.90;;;;;;5035646;28;19925;-73
2023/10/07 09:44:31;;;;;;;;;;;17.50;99.90;;;;;;5034876;28;20011;-74
2023/10/07 09:47:03;;;;;;;;;;;18.00;99.90;;;;;;5034626;28;19925;-73
2023/10/07 09:49:32;;;;;;;;;;;18.40;99.90;;;;;;5034179;28;20375;-73
2023/10/07 09:52:15;;;;;;;;;;;18.80;99.90;;;;;;5035338;28;19991;-75
2023/10/07 09:54:48;;;;;;;;;;;19.20;97.10;;;;;;5034718;28;20369;-75
2023/10/07 09:57:24;;;;;;;;;;;19.40;92.60;;;;;;5034977;28;19963;-75
2023/10/07 10:00:16;;;;;;;;;;;19.70;91.70;;;;;;5034898;28;19929;-75
2023/10/07 10:02:51;;;;;;;;;;;20.10;77.00;;;;;;5034616;28;19947;-75
2023/10/07 10:05:35;;;;;;;;;;;20.40;67.60;;;;;;5034547;28;19972;-74
2023/10/07 10:08:19;;;;;;;;;;;20.70;65.30;;;;;;5035599;28;19994;-74
2023/10/07 10:10:46;;;;;;;;;;;20.90;64.80;;;;;;5032834;28;19925;-74
2023/10/07 10:13:51;;;;;;;;;;;21.00;68.90;;;;;;5034582;28;19925;-74
2023/10/07 10:16:18;;;;;;;;;;;21.10;76.30;;;;;;5035670;28;19925;-74
2023/10/07 10:18:50;;;;;;;;;;;21.10;67.50;;;;;;5037271;28;20346;-74
2023/10/07 10:21:22;;;;;;;;;;;21.10;64.70;;;;;;5034582;28;19932;-74
2023/10/07 10:23:51;;;;;;;;;;;21.10;60.10;;;;;;5034658;28;19929;-74
2023/10/07 10:26:24;;;;;;;;;;;21.10;57.60;;;;;;5034572;28;19925;-74
2023/10/07 10:28:55;;;;;;;;;;;21.20;61.90;;;;;;5034312;28;19925;-74
2023/10/07 10:31:22;;;;;;;;;;;21.30;60.30;;;;;;5033498;28;20386;-74
2023/10/07 10:33:49;;;;;;;;;;;21.30;56.80;;;;;;5036792;28;20019;-74
2023/10/07 10:36:19;;;;;;;;;;;21.20;56.30;;;;;;5037868;28;19932;-74
2023/10/07 10:38:47;;;;;;;;;;;21.10;60.50;;;;;;5037947;28;19925;-74
2023/10/07 10:41:15;;;;;;;;;;;21.00;63.80;;;;;;5037704;28;20016;-74
2023/10/07 10:43:42;;;;;;;;;;;20.90;67.60;;;;;;5037652;28;19925;-74
2023/10/07 10:46:09;;;;;;;;;;;20.70;67.90;;;;;;5037524;28;19929;-73
2023/10/07 10:48:37;;;;;;;;;;;20.60;74.70;;;;;;5037581;28;19932;-74
2023/10/07 10:51:05;;;;;;;;;;;20.40;64.20;;;;;;5037585;28;19925;-74
2023/10/07 10:53:32;;;;;;;;;;;20.40;62.80;;;;;;5037753;28;19987;-74
2023/10/07 10:56:00;;;;;;;;;;;20.60;68.00;;;;;;5037766;28;19925;-76
2023/10/07 10:58:26;;;;;;;;;;;20.80;66.50;;;;;;5037496;28;19932;-76
2023/10/07 11:00:54;;;;;;;;;;;21.10;66.40;;;;;;5037669;28;19925;-76
2023/10/07 11:03:21;;;;;;;;;;;21.40;66.30;;;;;;5037460;28;19948;-76
2023/10/07 11:05:49;;;;;;;;;;;21.60;66.20;;;;;;5037458;28;19925;-73
2023/10/07 11:08:22;;;;;;;;;;;21.90;69.10;;;;;;5037365;28;19982;-73
2023/10/07 11:10:50;;;;;;;;;;;22.10;70.10;;;;;;5037539;28;20323;-73
2023/10/07 11:13:18;;;;;;;;;;;22.30;68.90;;;;;;5037817;28;19932;-73
2023/10/07 11:15:58;;;;;;;;;;;22.20;66.70;;;;;;5037630;28;19932;-73
2023/10/07 11:18:25;;;;;;;;;;;22.20;69.10;;;;;;5037578;28;19933;-73
2023/10/07 11:20:54;;;;;;;;;;;22.00;72.10;;;;;;5037366;28;19932;-73
2023/10/07 11:23:21;;;;;;;;;;;21.80;75.20;;;;;;5036987;28;20452;-73
2023/10/07 11:25:50;;;;;;;;;;;21.70;82.90;;;;;;5036882;28;20024;-73
2023/10/07 11:28:22;;;;;;;;;;;21.40;86.60;;;;;;5037091;28;20015;-73
2023/10/07 11:30:51;;;;;;;;;;;21.20;91.20;;;;;;5037390;28;19925;-76
2023/10/07 11:33:18;;;;;;;;;;;20.90;95.40;;;;;;5036866;28;20369;-75
2023/10/07 11:35:46;;;;;;;;;;;20.70;94.70;;;;;;5037722;28;19932;-75
2023/10/07 11:38:15;;;;;;;;;;;20.40;97.20;;;;;;5038195;28;19957;-75
2023/10/07 11:40:42;;;;;;;;;;;20.20;94.70;;;;;;5037668;28;19925;-75
2023/10/07 11:43:09;;;;;;;;;;;20.10;96.20;;;;;;5036816;28;19932;-75
2023/10/07 11:45:37;;;;;;;;;;;20.00;99.90;;;;;;5035984;28;19925;-76
2023/10/07 11:48:05;;;;;;;;;;;20.00;99.90;;;;;;5036874;28;19932;-76
2023/10/07 11:50:35;;;;;;;;;;;20.00;99.40;;;;;;5036676;28;20385;-76
2023/10/07 11:53:01;;;;;;;;;;;20.00;99.50;;;;;;5036762;28;19932;-76
2023/10/07 11:55:31;;;;;;;;;;;20.10;99.20;;;;;;5037076;28;20000;-76
2023/10/07 11:57:58;;;;;;;;;;;20.10;93.90;;;;;;5036809;28;19925;-75
2023/10/07 12:00:29;;;;;;;;;;;20.10;86.20;;;;;;5057603;22;19965;-76
2023/10/07 12:02:58;;;;;;;;;;;20.10;71.50;;;;;;5016840;28;19925;-76
2023/10/07 12:05:27;;;;;;;;;;;20.10;64.90;;;;;;5016836;28;19936;-76
2023/10/07 12:07:55;;;;;;;;;;;20.10;55.70;;;;;;5016826;28;19926;-76
2023/10/07 12:10:22;;;;;;;;;;;20.20;59.70;;;;;;5017595;28;19926;-76
2023/10/07 12:12:51;;;;;;;;;;;20.20;64.10;;;;;;5016948;28;19968;-75
2023/10/07 12:15:18;;;;;;;;;;;20.20;62.00;;;;;;5016653;28;20342;-76
2023/10/07 12:17:45;;;;;;;;;;;20.30;59.20;;;;;;5016795;28;19926;-76
2023/10/07 12:20:13;;;;;;;;;;;20.30;58.80;;;;;;5016327;28;19932;-75
2023/10/07 12:22:42;;;;;;;;;;;20.30;59.70;;;;;;5016961;28;20024;-76
2023/10/07 12:25:13;;;;;;;;;;;20.40;57.80;;;;;;5016537;28;20374;-76
2023/10/07 12:27:47;;;;;;;;;;;20.40;45.40;;;;;;5016357;28;19936;-76
2023/10/07 12:30:14;;;;;;;;;;;20.50;39.50;;;;;;5015838;28;20369;-75
2023/10/07 12:32:41;;;;;;;;;;;20.60;37.40;;;;;;5016261;28;19934;-75
2023/10/07 12:35:09;;;;;;;;;;;20.60;33.10;;;;;;5016242;28;19932;-75
2023/10/07 12:37:39;;;;;;;;;;;20.70;32.70;;;;;;5015948;28;19982;-75
2023/10/07 12:40:10;;;;;;;;;;;20.90;30.60;;;;;;5015893;28;19925;-75
2023/10/07 12:42:37;;;;;;;;;;;21.00;30.60;;;;;;5016074;28;19980;-75
2023/10/07 12:45:04;;;;;;;;;;;21.20;31.30;;;;;;5015798;28;19925;-76
2023/10/07 12:47:32;;;;;;;;;;;21.50;32.20;;;;;;5015761;28;19926;-76
2023/10/07 12:49:58;;;;;;;;;;;21.70;31.50;;;;;;5015694;28;19973;-76
2023/10/07 12:52:26;;;;;;;;;;;21.90;31.50;;;;;;5015669;28;19926;-76
2023/10/07 12:54:55;;;;;;;;;;;22.20;30.80;;;;;;5015396;28;20360;-75
2023/10/07 12:57:21;;;;;;;;;;;22.40;30.40;;;;;;5014617;28;19968;-75
2023/10/07 12:59:52;;;;;;;;;;;22.50;30.20;;;;;;5015195;28;19933;-74
2023/10/07 13:02:18;;;;;;;;;;;22.70;29.50;;;;;;5015530;28;19925;-75
2023/10/07 13:04:47;;;;;;;;;;;22.90;29.60;;;;;;5015613;28;19925;-75
2023/10/07 13:07:14;;;;;;;;;;;23.00;29.60;;;;;;5016079;28;19983;-75
2023/10/07 13:09:42;;;;;;;;;;;23.10;29.70;;;;;;5026786;28;19930;-76
2023/10/07 13:12:15;;;;;;;;;;;23.10;29.70;;;;;;5026491;28;19932;-76
2023/10/07 13:14:42;;;;;;;;;;;23.20;29.90;;;;;;5016385;28;19972;-76
2023/10/07 13:17:13;;;;;;;;;;;23.30;29.80;;;;;;5015273;28;19925;-75
2023/10/07 13:19:43;;;;;;;;;;;23.30;29.80;;;;;;5015318;28;19976;-75
2023/10/07 13:22:10;;;;;;;;;;;23.30;30.50;;;;;;5015134;28;19926;-75
2023/10/07 13:24:37;;;;;;;;;;;23.30;30.40;;;;;;5014758;28;19925;-75
2023/10/07 13:27:04;;;;;;;;;;;23.30;30.20;;;;;;5015127;28;19926;-75
2023/10/07 13:29:34;;;;;;;;;;;23.20;29.70;;;;;;5014653;28;20419;-75
2023/10/07 13:32:03;;;;;;;;;;;23.20;31.40;;;;;;5015191;28;19972;-75
2023/10/07 13:34:30;;;;;;;;;;;23.20;31.70;;;;;;5014881;28;19933;-75
2023/10/07 13:36:58;;;;;;;;;;;23.30;31.40;;;;;;5014971;28;19925;-75
2023/10/07 13:39:24;;;;;;;;;;;23.40;30.10;;;;;;5014731;28;19929;-75
2023/10/07 13:41:52;;;;;;;;;;;23.40;29.90;;;;;;5014689;28;19937;-75
2023/10/07 13:44:22;;;;;;;;;;;23.40;29.90;;;;;;5014401;28;20394;-75
2023/10/07 13:46:51;;;;;;;;;;;23.60;30.30;;;;;;5014938;28;19933;-75
2023/10/07 13:49:17;;;;;;;;;;;23.60;29.20;;;;;;5014801;28;19983;-75
2023/10/07 13:51:44;;;;;;;;;;;23.50;28.80;;;;;;5014721;28;19925;-75
2023/10/07 13:54:37;;;;;;;;;;;23.50;29.90;;;;;;5014843;28;19936;-75
2023/10/07 13:57:09;;;;;;;;;;;23.50;30.50;;;;;;5014693;28;19932;-75
2023/10/07 13:59:39;;;;;;;;;;;23.40;30.70;;;;;;5014357;28;19926;-75
2023/10/07 14:02:13;;;;;;;;;;;23.30;31.10;;;;;;5014638;28;20255;-75
2023/10/07 14:04:39;;;;;;;;;;;23.20;31.90;;;;;;5014430;28;19926;-76
2023/10/07 14:07:06;;;;;;;;;;;23.10;31.80;;;;;;5014124;28;19933;-75
2023/10/07 14:09:36;;;;;;;;;;;23.00;32.40;;;;;;5014295;28;19925;-75
2023/10/07 14:12:06;;;;;;;;;;;22.80;31.40;;;;;;5014328;28;19980;-76
2023/10/07 14:14:33;;;;;;;;;;;22.70;31.70;;;;;;5013994;28;19972;-76
2023/10/07 14:17:00;;;;;;;;;;;22.60;33.50;;;;;;5014247;28;19933;-75
2023/10/07 14:19:30;;;;;;;;;;;22.50;36.80;;;;;;5013626;28;20394;-75
2023/10/07 14:21:57;;;;;;;;;;;22.30;38.60;;;;;;5014168;28;19925;-75
2023/10/07 14:24:28;;;;;;;;;;;22.10;37.00;;;;;;5014269;28;19957;-75
2023/10/07 14:26:56;;;;;;;;;;;21.90;37.50;;;;;;5013860;28;20020;-75
2023/10/07 14:29:22;;;;;;;;;;;21.70;39.50;;;;;;5014108;28;19981;-75
2023/10/07 14:31:51;;;;;;;;;;;21.60;43.20;;;;;;5014091;28;20059;-75
2023/10/07 14:34:17;;;;;;;;;;;21.40;46.70;;;;;;5014305;28;19976;-76
2023/10/07 14:36:45;;;;;;;;;;;21.30;50.80;;;;;;5014300;28;19925;-75
2023/10/07 14:39:13;;;;;;;;;;;21.10;56.90;;;;;;5014281;28;19930;-75
2023/10/07 14:41:40;;;;;;;;;;;21.10;65.70;;;;;;5014170;28;19972;-75
2023/10/07 14:44:07;;;;;;;;;;;21.00;80.10;;;;;;5014889;28;19925;-75
2023/10/07 14:46:34;;;;;;;;;;;21.00;92.80;;;;;;5014069;28;19925;-76
2023/10/07 14:49:00;;;;;;;;;;;21.00;99.40;;;;;;5014091;28;19948;-75
2023/10/07 14:51:29;;;;;;;;;;;20.90;99.90;;;;;;5014250;28;19925;-76
2023/10/07 14:53:59;;;;;;;;;;;20.90;99.90;;;;;;5014098;28;20056;-76
2023/10/07 14:56:26;;;;;;;;;;;20.90;99.90;;;;;;5014346;28;19961;-75
2023/10/07 14:58:53;;;;;;;;;;;20.90;99.90;;;;;;5014378;28;19948;-76
2023/10/07 15:01:22;;;;;;;;;;;20.80;99.90;;;;;;5013570;28;20375;-76
2023/10/07 15:03:50;;;;;;;;;;;20.70;99.90;;;;;;5013825;28;19925;-76
2023/10/07 15:06:17;;;;;;;;;;;20.70;99.90;;;;;;5013793;28;19925;-76
2023/10/07 15:08:44;;;;;;;;;;;20.60;99.90;;;;;;5013699;28;19925;-76
2023/10/07 15:11:17;;;;;;;;;;;20.50;99.90;;;;;;5013807;28;19929;-76
2023/10/07 15:13:43;;;;;;;;;;;20.40;99.90;;;;;;5013597;28;19931;-76
2023/10/07 15:16:12;;;;;;;;;;;20.30;99.90;;;;;;5013432;28;20302;-76
2023/10/07 15:18:39;;;;;;;;;;;20.20;99.90;;;;;;5013725;28;19979;-75
2023/10/07 15:21:06;;;;;;;;;;;20.10;99.90;;;;;;5016654;28;19929;-75
2023/10/07 15:23:32;;;;;;;;;;;20.00;99.90;;;;;;5017260;28;19929;-75
2023/10/07 15:25:59;;;;;;;;;;;19.90;99.90;;;;;;5017318;28;19925;-75
2023/10/07 15:28:27;;;;;;;;;;;19.80;99.90;;;;;;5017127;28;19933;-75
2023/10/07 15:30:55;;;;;;;;;;;19.70;99.90;;;;;;5017369;28;19992;-75
2023/10/07 15:33:22;;;;;;;;;;;19.60;99.90;;;;;;5017286;28;19925;-76
2023/10/07 15:35:51;;;;;;;;;;;19.50;99.90;;;;;;5017164;28;20007;-76
2023/10/07 15:38:18;;;;;;;;;;;19.40;99.90;;;;;;5016970;28;20012;-76
2023/10/07 15:40:44;;;;;;;;;;;19.20;99.90;;;;;;5016991;28;19926;-76
2023/10/07 15:43:11;;;;;;;;;;;19.10;99.90;;;;;;5016902;28;19933;-76
2023/10/07 15:45:44;;;;;;;;;;;19.00;99.90;;;;;;5017127;28;19983;-76
2023/10/07 15:48:11;;;;;;;;;;;18.90;99.90;;;;;;5017012;28;19971;-76
2023/10/07 15:50:38;;;;;;;;;;;18.70;99.90;;;;;;5016846;28;19929;-76
2023/10/07 15:53:05;;;;;;;;;;;18.60;99.90;;;;;;5016471;28;20436;-76
2023/10/07 15:55:32;;;;;;;;;;;18.50;99.90;;;;;;5016793;28;19926;-76
2023/10/07 15:57:59;;;;;;;;;;;18.30;99.90;;;;;;5016423;28;20448;-76
2023/10/07 16:00:25;;;;;;;;;;;18.20;99.90;;;;;;5016188;28;20294;-76
2023/10/07 16:02:53;;;;;;;;;;;18.00;99.90;;;;;;5016207;28;20386;-76
2023/10/07 16:05:20;;;;;;;;;;;17.90;99.90;;;;;;5016277;28;20306;-76
2023/10/07 16:07:46;;;;;;;;;;;17.80;99.90;;;;;;5016486;28;19933;-76
2023/10/07 16:10:14;;;;;;;;;;;17.60;99.90;;;;;;5016312;28;19926;-76
2023/10/07 16:12:41;;;;;;;;;;;17.50;99.90;;;;;;5015979;28;19933;-76
2023/10/07 16:15:08;;;;;;;;;;;17.40;99.90;;;;;;5015943;28;20297;-76
2023/10/07 16:17:38;;;;;;;;;;;17.30;99.90;;;;;;5016387;28;19933;-76
2023/10/07 16:20:09;;;;;;;;;;;17.10;99.90;;;;;;5016119;28;19931;-76
2023/10/07 16:22:37;;;;;;;;;;;17.00;99.90;;;;;;5016198;28;19925;-75
2023/10/07 16:25:05;;;;;;;;;;;16.90;99.90;;;;;;5016112;28;19929;-76
2023/10/07 16:27:33;;;;;;;;;;;16.70;99.90;;;;;;5016095;28;19932;-75
2023/10/07 16:30:01;;;;;;;;;;;;;;;;;;5017561;28;19926;-68
2023/10/07 16:32:29;;;;;;;;;;;;;;;;;;5017853;28;20375;-69
2023/10/07 16:34:56;;;;;;;;;;;;;;;;;;5017928;28;20018;-69
2023/10/07 16:37:23;;;;;;;;;;;;;;;;;;5018088;28;20298;-69
2023/10/07 16:39:51;;;;;;;;;;;;;;;;;;5017592;28;19977;-69
2023/10/07 16:42:18;;;;;;;;;;;;;;;;;;5015717;28;19972;-69
2023/10/07 16:44:45;;;;;;;;;;;;;;;;;;5017228;28;19925;-69
2023/10/07 16:47:12;;;;;;;;;;;;;;;;;;5016936;28;20391;-69
2023/10/07 16:49:40;;;;;;;;;;;;;;;;;;5017283;28;19997;-69
2023/10/07 16:52:07;;;;;;;;;;;;;;;;;;5016638;28;19925;-69
2023/10/07 16:54:34;;;;;;;;;;;;;;;;;;5015708;28;20359;-69
2023/10/07 16:57:02;;;;;;;;;;;;;;;;;;5015535;28;20334;-69
2023/10/07 16:59:29;;;;;;;;;;;;;;;;;;5015203;28;19984;-68
2023/10/07 17:02:00;;;;;;;;;;;;;;;;;;5015315;28;19925;-69
2023/10/07 17:04:27;;;;;;;;;;;;;;;;;;5015398;28;19932;-70
2023/10/07 17:06:54;;;;;;;;;;;;;;;;;;5015273;28;19933;-70
2023/10/07 17:09:22;;;;;;;;;;;;;;;;;;5015234;28;19926;-69
2023/10/07 17:11:49;;;;;;;;;;;;;;;;;;5014991;28;20346;-70
2023/10/07 17:14:15;;;;;;;;;;;;;;;;;;5015586;28;19932;-70
2023/10/07 17:16:43;;;;;;;;;;;;;;;;;;5014836;28;20310;-70
2023/10/07 17:19:10;;;;;;;;;;;;;;;;;;5015112;28;19980;-70
2023/10/07 17:21:37;;;;;;;;;;;;;;;;;;5014730;28;20398;-70
2023/10/07 17:24:04;;;;;;;;;;;;;;;;;;5015094;28;20036;-70
2023/10/07 17:26:32;;;;;;;;;;;;;;;;;;5015374;28;19926;-70
2023/10/07 17:28:59;;;;;;;;;;;;;;;;;;5015520;28;19926;-70
2023/10/07 17:31:26;;;;;;;;;;;;;;;;;;5014936;28;19926;-71
2023/10/07 17:33:53;;;;;;;;;;;;;;;;;;5014894;28;19964;-72
2023/10/07 17:36:20;;;;;;;;;;;;;;;;;;5014657;28;20378;-71
2023/10/07 17:38:48;;;;;;;;;;;;;;;;;;5014815;28;19926;-71
2023/10/07 17:41:17;;;;;;;;;;;;;;;;;;5014744;28;20305;-71
2023/10/07 17:43:45;;;;;;;;;;;;;;;;;;5014212;28;19925;-71
2023/10/07 17:46:13;;;;;;;;;;;;;;;;;;5014487;28;19933;-70
2023/10/07 17:48:41;;;;;;;;;;;;;;;;;;5014868;28;19925;-70
2023/10/07 17:51:09;;;;;;;;;;;;;;;;;;5014682;28;20025;-70
2023/10/07 17:53:37;;;;;;;;;;;;;;;;;;5014480;28;19925;-70
2023/10/07 17:56:04;;;;;;;;;;;;;;;;;;5014570;28;19925;-70
2023/10/07 17:58:32;;;;;;;;;;;;;;;;;;5014238;28;19926;-70
2023/10/07 18:00:59;;;;;;;;;;;;;;;;;;5014406;28;20379;-70
2023/10/07 18:03:26;;;;;;;;;;;;;;;;;;5014114;28;20371;-70
2023/10/07 18:05:54;;;;;;;;;;;;;;;;;;5014627;28;19932;-70
2023/10/07 18:08:21;;;;;;;;;;;;;;;;;;5014611;28;19933;-71
2023/10/07 18:10:48;;;;;;;;;;;;;;;;;;5014166;28;20401;-70
2023/10/07 18:13:15;;;;;;;;;;;;;;;;;;5014439;28;19926;-70
2023/10/07 18:15:43;;;;;;;;;;;;;;;;;;5014430;28;19925;-70
2023/10/07 18:18:10;;;;;;;;;;;;;;;;;;5014170;28;20383;-70
2023/10/07 18:20:37;;;;;;;;;;;;;;;;;;5014169;28;19933;-70
2023/10/07 18:23:04;;;;;;;;;;;;;;;;;;5014272;28;19925;-72
2023/10/07 18:25:33;;;;;;;;;;;;;;;;;;5014216;28;19925;-70
2023/10/07 18:28:00;;;;;;;;;;;;;;;;;;5014249;28;19926;-70
2023/10/07 18:30:27;;;;;;;;;;;;;;;;;;5014260;28;19925;-71
2023/10/07 18:32:54;;;;;;;;;;;;;;;;;;5013929;28;20429;-71
2023/10/07 18:35:21;;;;;;;;;;;;;;;;;;5014321;28;19926;-71
2023/10/07 18:37:48;;;;;;;;;;;;;;;;;;5013988;28;19932;-71
2023/10/07 18:40:15;;;;;;;;;;;;;;;;;;5014192;28;20034;-71
2023/10/07 18:42:42;;;;;;;;;;;;;;;;;;5014089;28;19929;-71
2023/10/07 18:45:10;;;;;;;;;;;;;;;;;;5014090;28;19926;-71
2023/10/07 18:47:37;;;;;;;;;;;;;;;;;;5014005;28;19932;-72
2023/10/07 18:50:04;;;;;;;;;;;;;;;;;;5013926;28;19926;-72
2023/10/07 18:52:31;;;;;;;;;;;;;;;;;;5013995;28;19972;-72
2023/10/07 18:54:58;;;;;;;;;;;;;;;;;;5016671;28;19925;-72
2023/10/07 18:57:25;;;;;;;;;;;;;;;;;;5017904;28;19929;-73
2023/10/07 18:59:52;;;;;;;;;;;;;;;;;;5017498;28;19925;-72
2023/10/07 19:02:20;;;;;;;;;;;;;;;;;;5017754;28;19932;-72
2023/10/07 19:04:47;;;;;;;;;;;;;;;;;;5017728;28;19926;-73
2023/10/07 19:07:14;;;;;;;;;;;;;;;;;;5017576;28;19926;-71
2023/10/07 19:09:42;;;;;;;;;;;;;;;;;;5017644;28;20402;-72
2023/10/07 19:12:09;;;;;;;;;;;;;;;;;;5017638;28;19948;-72
2023/10/07 19:14:36;;;;;;;;;;;;;;;;;;5018546;28;19929;-72
2023/10/07 19:17:04;;;;;;;;;;;;;;;;;;5017476;28;19925;-73
2023/10/07 19:19:31;;;;;;;;;;;;;;;;;;5017443;28;19929;-72
2023/10/07 19:21:58;;;;;;;;;;;;;;;;;;5017453;28;19925;-70
2023/10/07 19:24:27;;;;;;;;;;;;;;;;;;5017723;28;19925;-71
2023/10/07 19:26:54;;;;;;;;;;;;;;;;;;5017448;28;19973;-71
2023/10/07 19:29:21;;;;;;;;;;;;;;;;;;5017184;28;19932;-70
2023/10/07 19:31:47;;;;;;;;;;;;;;;;;;5017073;28;20397;-71
2023/10/07 19:34:16;;;;;;;;;;;;;;;;;;5017238;28;19929;-72
2023/10/07 19:36:43;;;;;;;;;;;;;;;;;;5017289;28;19987;-71
2023/10/07 19:39:10;;;;;;;;;;;;;;;;;;5017071;28;19933;-70
2023/10/07 19:41:38;;;;;;;;;;;;;;;;;;5017152;28;19929;-71
2023/10/07 19:44:05;;;;;;;;;;;;;;;;;;5016993;28;19933;-71
2023/10/07 19:46:32;;;;;;;;;;;;;;;;;;5017060;28;20001;-72
2023/10/07 19:48:59;;;;;;;;;;;;;;;;;;5016831;28;19925;-72
2023/10/07 19:51:25;;;;;;;;;;;;;;;;;;5016937;28;19937;-72
2023/10/07 19:53:52;;;;;;;;;;;;;;;;;;5018851;28;19926;-71
2023/10/07 19:56:21;;;;;;;;;;;;;;;;;;5016975;28;19926;-70
2023/10/07 19:58:49;;;;;;;;;;;;;;;;;;5016639;28;19925;-71
2023/10/07 20:01:15;;;;;;;;;;;;;;;;;;5016842;28;19977;-71
2023/10/07 20:03:43;;;;;;;;;;;;;;;;;;5016664;28;19925;-72
2023/10/07 20:06:10;;;;;;;;;;;;;;;;;;5016069;28;19925;-72
2023/10/07 20:08:37;;;;;;;;;;;;;;;;;;5016601;28;19983;-71
2023/10/07 20:11:04;;;;;;;;;;;;;;;;;;5016694;28;19926;-72
2023/10/07 20:13:31;;;;;;;;;;;;;;;;;;5016765;28;19987;-72
2023/10/07 20:15:58;;;;;;;;;;;;;;;;;;5016473;28;19926;-70
2023/10/07 20:18:25;;;;;;;;;;;;;;;;;;5016238;28;19926;-69
2023/10/07 20:20:52;;;;;;;;;;;;;;;;;;5016342;28;19925;-70
2023/10/07 20:23:19;;;;;;;;;;;;;;;;;;5015861;28;20299;-70
2023/10/07 20:25:46;;;;;;;;;;;;;;;;;;5016127;28;19926;-70
2023/10/07 20:28:13;;;;;;;;;;;;;;;;;;5015995;28;20502;-70
2023/10/07 20:30:40;;;;;;;;;;;;;;;;;;5016430;28;19932;-70
2023/10/07 20:33:06;;;;;;;;;;;;;;;;;;5016010;28;19936;-70
2023/10/07 20:35:33;;;;;;;;;;;;;;;;;;5016231;28;19933;-69
2023/10/07 20:38:00;;;;;;;;;;;;;;;;;;5015893;28;20397;-70
2023/10/07 20:40:27;;;;;;;;;;;;;;;;;;5016033;28;19929;-70
2023/10/07 20:42:54;;;;;;;;;;;;;;;;;;5015930;28;20371;-70
2023/10/07 20:45:23;;;;;;;;;;;;;;;;;;5016257;28;20012;-69
2023/10/07 20:47:50;;;;;;;;;;;;;;;;;;5016445;28;19948;-71
2023/10/07 20:50:17;;;;;;;;;;;;;;;;;;5016060;28;19929;-70
2023/10/07 20:52:44;;;;;;;;;;;;;;;;;;5016066;28;19925;-71